sensor_id;sensor_type;location;lat;lon;timestamp;P1;durP1;ratioP1;P2;durP2;ratioP2
26335;SDS011;14047;50.936;4.654;2023-07-22T00:01:02;12.15;;;9.00;;
26335;SDS011;14047;50.936;4.654;2023-07-22T00:03:28;13.50;;;8.52;;
26335;SDS011;14047;50.936;4.654;2023-07-22T00:08:33;16.77;;;8.98;;
26335;SDS011;14047;50.936;4.654;2023-07-22T00:11:00;14.73;;;9.05;;
26335;SDS011;14047;50.936;4.654;2023-07-22T00:13:26;13.60;;;9.38;;
26335;SDS011;14047;50.936;4.654;2023-07-22T00:15:53;17.75;;;8.63;;
26335;SDS011;14047;50.936;4.654;2023-07-22T00:18:19;14.05;;;9.27;;
26335;SDS011;14047;50.936;4.654;2023-07-22T00:20:45;13.75;;;8.68;;
26335;SDS011;14047;50.936;4.654;2023-07-22T00:23:11;15.05;;;8.88;;
26335;SDS011;14047;50.936;4.654;2023-07-22T00:25:37;12.32;;;8.30;;
26335;SDS011;14047;50.936;4.654;2023-07-22T00:28:03;10.52;;;7.28;;
26335;SDS011;14047;50.936;4.654;2023-07-22T00:30:29;13.00;;;7.70;;
26335;SDS011;14047;50.936;4.654;2023-07-22T00:32:55;11.27;;;7.65;;
26335;SDS011;14047;50.936;4.654;2023-07-22T00:35:21;11.88;;;7.50;;
26335;SDS011;14047;50.936;4.654;2023-07-22T00:37:47;10.93;;;7.57;;
26335;SDS011;14047;50.936;4.654;2023-07-22T00:40:13;11.23;;;8.35;;
26335;SDS011;14047;50.936;4.654;2023-07-22T00:42:39;15.00;;;7.80;;
26335;SDS011;14047;50.936;4.654;2023-07-22T00:45:05;15.70;;;9.70;;
26335;SDS011;14047;50.936;4.654;2023-07-22T00:47:33;14.68;;;8.77;;
26335;SDS011;14047;50.936;4.654;2023-07-22T00:50:00;12.02;;;7.90;;
26335;SDS011;14047;50.936;4.654;2023-07-22T00:52:27;12.95;;;9.27;;
26335;SDS011;14047;50.936;4.654;2023-07-22T00:54:54;13.98;;;8.65;;
26335;SDS011;14047;50.936;4.654;2023-07-22T00:57:20;14.43;;;9.27;;
26335;SDS011;14047;50.936;4.654;2023-07-22T00:59:46;13.88;;;8.45;;
26335;SDS011;14047;50.936;4.654;2023-07-22T01:02:12;15.85;;;8.88;;
26335;SDS011;14047;50.936;4.654;2023-07-22T01:04:38;12.02;;;7.95;;
26335;SDS011;14047;50.936;4.654;2023-07-22T01:07:05;13.93;;;8.45;;
26335;SDS011;14047;50.936;4.654;2023-07-22T01:09:39;11.40;;;8.18;;
26335;SDS011;14047;50.936;4.654;2023-07-22T01:12:06;13.27;;;8.70;;
26335;SDS011;14047;50.936;4.654;2023-07-22T01:14:34;13.50;;;8.38;;
26335;SDS011;14047;50.936;4.654;2023-07-22T01:17:04;13.00;;;8.70;;
26335;SDS011;14047;50.936;4.654;2023-07-22T01:19:32;15.85;;;9.50;;
26335;SDS011;14047;50.936;4.654;2023-07-22T01:21:59;18.23;;;9.07;;
26335;SDS011;14047;50.936;4.654;2023-07-22T01:24:31;15.20;;;9.77;;
26335;SDS011;14047;50.936;4.654;2023-07-22T01:26:57;17.73;;;9.90;;
26335;SDS011;14047;50.936;4.654;2023-07-22T01:29:24;11.40;;;8.68;;
26335;SDS011;14047;50.936;4.654;2023-07-22T01:31:51;13.40;;;9.10;;
26335;SDS011;14047;50.936;4.654;2023-07-22T01:34:19;15.57;;;9.48;;
26335;SDS011;14047;50.936;4.654;2023-07-22T01:36:45;17.00;;;8.95;;
26335;SDS011;14047;50.936;4.654;2023-07-22T01:39:13;13.63;;;9.23;;
26335;SDS011;14047;50.936;4.654;2023-07-22T01:41:39;17.80;;;9.45;;
26335;SDS011;14047;50.936;4.654;2023-07-22T01:44:05;14.38;;;9.80;;
26335;SDS011;14047;50.936;4.654;2023-07-22T01:46:32;13.40;;;9.05;;
26335;SDS011;14047;50.936;4.654;2023-07-22T01:48:58;12.88;;;8.60;;
26335;SDS011;14047;50.936;4.654;2023-07-22T01:51:24;15.25;;;9.18;;
26335;SDS011;14047;50.936;4.654;2023-07-22T01:53:50;13.68;;;9.00;;
26335;SDS011;14047;50.936;4.654;2023-07-22T01:56:16;14.95;;;9.38;;
26335;SDS011;14047;50.936;4.654;2023-07-22T01:58:42;16.50;;;9.93;;
26335;SDS011;14047;50.936;4.654;2023-07-22T02:01:08;16.90;;;9.23;;
26335;SDS011;14047;50.936;4.654;2023-07-22T02:03:35;16.77;;;8.90;;
26335;SDS011;14047;50.936;4.654;2023-07-22T02:06:02;15.73;;;8.27;;
26335;SDS011;14047;50.936;4.654;2023-07-22T02:08:29;16.30;;;9.13;;
26335;SDS011;14047;50.936;4.654;2023-07-22T02:10:55;16.67;;;9.05;;
26335;SDS011;14047;50.936;4.654;2023-07-22T02:13:29;16.27;;;9.52;;
26335;SDS011;14047;50.936;4.654;2023-07-22T02:15:56;13.68;;;8.75;;
26335;SDS011;14047;50.936;4.654;2023-07-22T02:18:22;18.52;;;9.98;;
26335;SDS011;14047;50.936;4.654;2023-07-22T02:20:48;15.00;;;8.98;;
26335;SDS011;14047;50.936;4.654;2023-07-22T02:23:14;14.02;;;9.32;;
26335;SDS011;14047;50.936;4.654;2023-07-22T02:25:40;16.90;;;10.15;;
26335;SDS011;14047;50.936;4.654;2023-07-22T02:28:06;15.35;;;9.65;;
26335;SDS011;14047;50.936;4.654;2023-07-22T02:30:35;19.00;;;10.27;;
26335;SDS011;14047;50.936;4.654;2023-07-22T02:33:02;16.70;;;9.80;;
26335;SDS011;14047;50.936;4.654;2023-07-22T02:35:30;18.75;;;9.52;;
26335;SDS011;14047;50.936;4.654;2023-07-22T02:37:57;16.58;;;10.00;;
26335;SDS011;14047;50.936;4.654;2023-07-22T02:40:23;20.70;;;9.90;;
26335;SDS011;14047;50.936;4.654;2023-07-22T02:42:49;18.17;;;10.15;;
26335;SDS011;14047;50.936;4.654;2023-07-22T02:45:15;17.73;;;9.98;;
26335;SDS011;14047;50.936;4.654;2023-07-22T02:47:40;19.10;;;10.13;;
26335;SDS011;14047;50.936;4.654;2023-07-22T02:50:06;15.98;;;10.23;;
26335;SDS011;14047;50.936;4.654;2023-07-22T02:52:33;25.17;;;9.60;;
26335;SDS011;14047;50.936;4.654;2023-07-22T02:55:13;17.23;;;9.43;;
26335;SDS011;14047;50.936;4.654;2023-07-22T02:57:41;17.55;;;10.00;;
26335;SDS011;14047;50.936;4.654;2023-07-22T03:00:07;18.75;;;10.90;;
26335;SDS011;14047;50.936;4.654;2023-07-22T03:02:34;16.98;;;9.88;;
26335;SDS011;14047;50.936;4.654;2023-07-22T03:05:01;19.60;;;10.55;;
26335;SDS011;14047;50.936;4.654;2023-07-22T03:07:30;20.90;;;9.82;;
26335;SDS011;14047;50.936;4.654;2023-07-22T03:09:56;16.35;;;9.60;;
26335;SDS011;14047;50.936;4.654;2023-07-22T03:12:22;18.20;;;10.13;;
26335;SDS011;14047;50.936;4.654;2023-07-22T03:14:48;21.90;;;10.90;;
26335;SDS011;14047;50.936;4.654;2023-07-22T03:17:14;18.27;;;10.45;;
26335;SDS011;14047;50.936;4.654;2023-07-22T03:19:42;19.27;;;10.75;;
26335;SDS011;14047;50.936;4.654;2023-07-22T03:22:08;20.02;;;11.35;;
26335;SDS011;14047;50.936;4.654;2023-07-22T03:24:35;26.30;;;12.18;;
26335;SDS011;14047;50.936;4.654;2023-07-22T03:27:01;22.05;;;12.00;;
26335;SDS011;14047;50.936;4.654;2023-07-22T03:29:27;22.23;;;11.65;;
26335;SDS011;14047;50.936;4.654;2023-07-22T03:31:53;20.00;;;10.68;;
26335;SDS011;14047;50.936;4.654;2023-07-22T03:34:19;20.02;;;10.75;;
26335;SDS011;14047;50.936;4.654;2023-07-22T03:36:45;25.45;;;11.18;;
26335;SDS011;14047;50.936;4.654;2023-07-22T03:39:11;21.35;;;10.55;;
26335;SDS011;14047;50.936;4.654;2023-07-22T03:41:37;20.20;;;11.63;;
26335;SDS011;14047;50.936;4.654;2023-07-22T03:44:03;20.98;;;11.30;;
26335;SDS011;14047;50.936;4.654;2023-07-22T03:46:29;24.55;;;11.32;;
26335;SDS011;14047;50.936;4.654;2023-07-22T03:48:55;25.50;;;11.68;;
26335;SDS011;14047;50.936;4.654;2023-07-22T03:51:21;22.38;;;12.30;;
26335;SDS011;14047;50.936;4.654;2023-07-22T03:53:47;25.70;;;12.05;;
26335;SDS011;14047;50.936;4.654;2023-07-22T03:56:13;22.60;;;11.98;;
26335;SDS011;14047;50.936;4.654;2023-07-22T03:58:39;23.77;;;10.93;;
26335;SDS011;14047;50.936;4.654;2023-07-22T04:01:04;25.13;;;11.48;;
26335;SDS011;14047;50.936;4.654;2023-07-22T04:03:30;19.30;;;11.63;;
26335;SDS011;14047;50.936;4.654;2023-07-22T04:05:56;21.13;;;11.30;;
26335;SDS011;14047;50.936;4.654;2023-07-22T04:08:22;27.50;;;12.23;;
26335;SDS011;14047;50.936;4.654;2023-07-22T04:10:52;22.77;;;12.10;;
26335;SDS011;14047;50.936;4.654;2023-07-22T04:13:19;22.67;;;13.02;;
26335;SDS011;14047;50.936;4.654;2023-07-22T04:15:46;23.85;;;12.30;;
26335;SDS011;14047;50.936;4.654;2023-07-22T04:18:14;21.30;;;12.70;;
26335;SDS011;14047;50.936;4.654;2023-07-22T04:20:44;24.95;;;12.30;;
26335;SDS011;14047;50.936;4.654;2023-07-22T04:23:10;23.40;;;12.60;;
26335;SDS011;14047;50.936;4.654;2023-07-22T04:25:43;27.48;;;12.65;;
26335;SDS011;14047;50.936;4.654;2023-07-22T04:28:10;24.58;;;12.07;;
26335;SDS011;14047;50.936;4.654;2023-07-22T04:30:37;22.25;;;12.00;;
26335;SDS011;14047;50.936;4.654;2023-07-22T04:33:05;25.83;;;11.23;;
26335;SDS011;14047;50.936;4.654;2023-07-22T04:35:37;22.92;;;12.18;;
26335;SDS011;14047;50.936;4.654;2023-07-22T04:38:03;24.30;;;11.45;;
26335;SDS011;14047;50.936;4.654;2023-07-22T04:40:30;25.95;;;11.77;;
26335;SDS011;14047;50.936;4.654;2023-07-22T04:42:56;22.02;;;11.05;;
26335;SDS011;14047;50.936;4.654;2023-07-22T04:45:22;22.48;;;10.90;;
26335;SDS011;14047;50.936;4.654;2023-07-22T04:47:49;24.05;;;11.98;;
26335;SDS011;14047;50.936;4.654;2023-07-22T04:50:16;21.63;;;11.55;;
26335;SDS011;14047;50.936;4.654;2023-07-22T04:52:42;27.25;;;12.00;;
26335;SDS011;14047;50.936;4.654;2023-07-22T04:55:13;23.23;;;11.23;;
26335;SDS011;14047;50.936;4.654;2023-07-22T04:57:39;22.55;;;11.68;;
26335;SDS011;14047;50.936;4.654;2023-07-22T05:00:16;20.23;;;10.82;;
26335;SDS011;14047;50.936;4.654;2023-07-22T05:02:44;19.45;;;11.05;;
26335;SDS011;14047;50.936;4.654;2023-07-22T05:05:11;28.65;;;11.32;;
26335;SDS011;14047;50.936;4.654;2023-07-22T05:07:38;19.65;;;10.27;;
26335;SDS011;14047;50.936;4.654;2023-07-22T05:10:04;19.88;;;11.10;;
26335;SDS011;14047;50.936;4.654;2023-07-22T05:12:32;23.52;;;11.15;;
26335;SDS011;14047;50.936;4.654;2023-07-22T05:14:58;21.98;;;11.15;;
26335;SDS011;14047;50.936;4.654;2023-07-22T05:17:24;18.00;;;10.73;;
26335;SDS011;14047;50.936;4.654;2023-07-22T05:19:50;21.48;;;10.98;;
26335;SDS011;14047;50.936;4.654;2023-07-22T05:22:16;19.52;;;10.32;;
26335;SDS011;14047;50.936;4.654;2023-07-22T05:24:42;19.23;;;10.80;;
26335;SDS011;14047;50.936;4.654;2023-07-22T05:27:08;23.08;;;10.88;;
26335;SDS011;14047;50.936;4.654;2023-07-22T05:29:34;21.52;;;11.02;;
26335;SDS011;14047;50.936;4.654;2023-07-22T05:32:00;25.00;;;12.15;;
26335;SDS011;14047;50.936;4.654;2023-07-22T05:34:26;22.52;;;10.88;;
26335;SDS011;14047;50.936;4.654;2023-07-22T05:36:52;28.13;;;11.30;;
26335;SDS011;14047;50.936;4.654;2023-07-22T05:39:18;28.00;;;10.98;;
26335;SDS011;14047;50.936;4.654;2023-07-22T05:41:44;22.95;;;10.48;;
26335;SDS011;14047;50.936;4.654;2023-07-22T05:44:10;23.08;;;9.98;;
26335;SDS011;14047;50.936;4.654;2023-07-22T05:46:35;23.77;;;10.45;;
26335;SDS011;14047;50.936;4.654;2023-07-22T05:49:03;23.67;;;11.60;;
26335;SDS011;14047;50.936;4.654;2023-07-22T05:51:29;18.08;;;9.82;;
26335;SDS011;14047;50.936;4.654;2023-07-22T05:53:55;20.17;;;9.98;;
26335;SDS011;14047;50.936;4.654;2023-07-22T05:56:22;21.98;;;9.63;;
26335;SDS011;14047;50.936;4.654;2023-07-22T05:58:48;24.67;;;10.40;;
26335;SDS011;14047;50.936;4.654;2023-07-22T06:01:14;21.83;;;9.52;;
26335;SDS011;14047;50.936;4.654;2023-07-22T06:03:40;23.27;;;9.23;;
26335;SDS011;14047;50.936;4.654;2023-07-22T06:06:07;18.73;;;9.18;;
26335;SDS011;14047;50.936;4.654;2023-07-22T06:08:33;21.15;;;8.63;;
26335;SDS011;14047;50.936;4.654;2023-07-22T06:10:59;27.38;;;8.35;;
26335;SDS011;14047;50.936;4.654;2023-07-22T06:13:25;19.27;;;8.10;;
26335;SDS011;14047;50.936;4.654;2023-07-22T06:15:52;18.50;;;8.07;;
26335;SDS011;14047;50.936;4.654;2023-07-22T06:18:18;15.23;;;7.97;;
26335;SDS011;14047;50.936;4.654;2023-07-22T06:20:44;19.50;;;7.85;;
26335;SDS011;14047;50.936;4.654;2023-07-22T06:23:10;19.13;;;7.60;;
26335;SDS011;14047;50.936;4.654;2023-07-22T06:25:36;16.83;;;7.70;;
26335;SDS011;14047;50.936;4.654;2023-07-22T06:28:02;14.60;;;6.90;;
26335;SDS011;14047;50.936;4.654;2023-07-22T06:30:28;16.95;;;7.30;;
26335;SDS011;14047;50.936;4.654;2023-07-22T06:32:54;14.43;;;7.10;;
26335;SDS011;14047;50.936;4.654;2023-07-22T06:35:20;20.20;;;7.80;;
26335;SDS011;14047;50.936;4.654;2023-07-22T06:37:46;18.13;;;8.10;;
26335;SDS011;14047;50.936;4.654;2023-07-22T06:40:12;17.77;;;6.72;;
26335;SDS011;14047;50.936;4.654;2023-07-22T06:42:38;16.48;;;6.78;;
26335;SDS011;14047;50.936;4.654;2023-07-22T06:45:04;13.20;;;6.65;;
26335;SDS011;14047;50.936;4.654;2023-07-22T06:47:31;18.20;;;7.10;;
26335;SDS011;14047;50.936;4.654;2023-07-22T06:49:57;21.02;;;6.90;;
26335;SDS011;14047;50.936;4.654;2023-07-22T06:52:23;14.77;;;6.43;;
26335;SDS011;14047;50.936;4.654;2023-07-22T06:54:49;17.73;;;6.47;;
26335;SDS011;14047;50.936;4.654;2023-07-22T06:57:15;11.90;;;5.97;;
26335;SDS011;14047;50.936;4.654;2023-07-22T06:59:41;12.30;;;5.68;;
26335;SDS011;14047;50.936;4.654;2023-07-22T07:02:07;17.88;;;6.45;;
26335;SDS011;14047;50.936;4.654;2023-07-22T07:04:34;13.85;;;6.13;;
26335;SDS011;14047;50.936;4.654;2023-07-22T07:07:00;9.60;;;5.35;;
26335;SDS011;14047;50.936;4.654;2023-07-22T07:09:26;14.43;;;6.10;;
26335;SDS011;14047;50.936;4.654;2023-07-22T07:11:52;18.42;;;5.95;;
26335;SDS011;14047;50.936;4.654;2023-07-22T07:14:20;13.75;;;5.80;;
26335;SDS011;14047;50.936;4.654;2023-07-22T07:16:46;18.95;;;6.10;;
26335;SDS011;14047;50.936;4.654;2023-07-22T07:19:12;13.38;;;5.47;;
26335;SDS011;14047;50.936;4.654;2023-07-22T07:21:38;14.85;;;5.07;;
26335;SDS011;14047;50.936;4.654;2023-07-22T07:24:04;17.92;;;5.30;;
26335;SDS011;14047;50.936;4.654;2023-07-22T07:26:30;12.25;;;4.60;;
26335;SDS011;14047;50.936;4.654;2023-07-22T07:28:56;12.63;;;5.95;;
26335;SDS011;14047;50.936;4.654;2023-07-22T07:31:22;12.95;;;4.90;;
26335;SDS011;14047;50.936;4.654;2023-07-22T07:33:48;13.38;;;4.72;;
26335;SDS011;14047;50.936;4.654;2023-07-22T07:36:14;9.43;;;5.00;;
26335;SDS011;14047;50.936;4.654;2023-07-22T07:38:40;15.30;;;4.90;;
26335;SDS011;14047;50.936;4.654;2023-07-22T07:41:06;15.32;;;4.97;;
26335;SDS011;14047;50.936;4.654;2023-07-22T07:43:37;16.08;;;4.93;;
26335;SDS011;14047;50.936;4.654;2023-07-22T07:46:22;12.77;;;4.22;;
26335;SDS011;14047;50.936;4.654;2023-07-22T07:48:53;13.60;;;4.32;;
26335;SDS011;14047;50.936;4.654;2023-07-22T07:51:21;15.80;;;4.20;;
26335;SDS011;14047;50.936;4.654;2023-07-22T07:53:49;8.70;;;3.63;;
26335;SDS011;14047;50.936;4.654;2023-07-22T07:56:16;16.58;;;4.85;;
26335;SDS011;14047;50.936;4.654;2023-07-22T07:58:43;11.95;;;3.88;;
26335;SDS011;14047;50.936;4.654;2023-07-22T08:01:10;10.82;;;4.28;;
26335;SDS011;14047;50.936;4.654;2023-07-22T08:03:36;12.77;;;4.15;;
26335;SDS011;14047;50.936;4.654;2023-07-22T08:06:03;9.25;;;3.63;;
26335;SDS011;14047;50.936;4.654;2023-07-22T08:08:30;8.90;;;3.90;;
26335;SDS011;14047;50.936;4.654;2023-07-22T08:11:03;6.30;;;3.30;;
26335;SDS011;14047;50.936;4.654;2023-07-22T08:13:38;6.85;;;3.67;;
26335;SDS011;14047;50.936;4.654;2023-07-22T08:16:06;6.68;;;3.22;;
26335;SDS011;14047;50.936;4.654;2023-07-22T08:18:33;13.35;;;4.53;;
26335;SDS011;14047;50.936;4.654;2023-07-22T08:21:01;8.43;;;3.95;;
26335;SDS011;14047;50.936;4.654;2023-07-22T08:23:32;7.55;;;3.47;;
26335;SDS011;14047;50.936;4.654;2023-07-22T08:25:59;11.05;;;3.90;;
26335;SDS011;14047;50.936;4.654;2023-07-22T08:28:25;9.80;;;4.45;;
26335;SDS011;14047;50.936;4.654;2023-07-22T08:30:54;9.82;;;3.53;;
26335;SDS011;14047;50.936;4.654;2023-07-22T08:33:21;7.15;;;3.10;;
26335;SDS011;14047;50.936;4.654;2023-07-22T08:35:47;8.77;;;3.67;;
26335;SDS011;14047;50.936;4.654;2023-07-22T08:38:13;7.28;;;3.00;;
26335;SDS011;14047;50.936;4.654;2023-07-22T08:40:40;10.38;;;3.33;;
26335;SDS011;14047;50.936;4.654;2023-07-22T08:43:09;8.40;;;2.58;;
26335;SDS011;14047;50.936;4.654;2023-07-22T08:45:37;7.10;;;2.38;;
26335;SDS011;14047;50.936;4.654;2023-07-22T08:48:05;6.57;;;2.78;;
26335;SDS011;14047;50.936;4.654;2023-07-22T08:50:46;11.25;;;2.50;;
26335;SDS011;14047;50.936;4.654;2023-07-22T08:53:18;6.47;;;2.50;;
26335;SDS011;14047;50.936;4.654;2023-07-22T08:55:48;6.95;;;2.70;;
26335;SDS011;14047;50.936;4.654;2023-07-22T08:58:15;8.30;;;2.58;;
26335;SDS011;14047;50.936;4.654;2023-07-22T09:00:42;7.45;;;2.80;;
26335;SDS011;14047;50.936;4.654;2023-07-22T09:03:08;4.25;;;2.20;;
26335;SDS011;14047;50.936;4.654;2023-07-22T09:05:36;8.35;;;2.60;;
26335;SDS011;14047;50.936;4.654;2023-07-22T09:08:05;9.15;;;3.08;;
26335;SDS011;14047;50.936;4.654;2023-07-22T09:10:32;11.32;;;2.75;;
26335;SDS011;14047;50.936;4.654;2023-07-22T09:12:59;7.18;;;2.38;;
26335;SDS011;14047;50.936;4.654;2023-07-22T09:15:26;8.65;;;2.28;;
26335;SDS011;14047;50.936;4.654;2023-07-22T09:17:52;4.80;;;2.08;;
26335;SDS011;14047;50.936;4.654;2023-07-22T09:20:19;5.72;;;2.00;;
26335;SDS011;14047;50.936;4.654;2023-07-22T09:22:47;8.95;;;2.17;;
26335;SDS011;14047;50.936;4.654;2023-07-22T09:25:22;6.70;;;2.45;;
26335;SDS011;14047;50.936;4.654;2023-07-22T09:27:50;5.18;;;2.50;;
26335;SDS011;14047;50.936;4.654;2023-07-22T09:32:46;4.55;;;2.05;;
26335;SDS011;14047;50.936;4.654;2023-07-22T09:35:12;5.68;;;2.10;;
26335;SDS011;14047;50.936;4.654;2023-07-22T09:37:38;3.10;;;2.13;;
26335;SDS011;14047;50.936;4.654;2023-07-22T09:40:23;4.55;;;2.05;;
26335;SDS011;14047;50.936;4.654;2023-07-22T09:42:51;6.35;;;2.20;;
26335;SDS011;14047;50.936;4.654;2023-07-22T09:45:25;6.15;;;2.33;;
26335;SDS011;14047;50.936;4.654;2023-07-22T09:47:54;6.00;;;2.00;;
26335;SDS011;14047;50.936;4.654;2023-07-22T09:50:21;5.40;;;2.25;;
26335;SDS011;14047;50.936;4.654;2023-07-22T09:52:49;5.07;;;1.83;;
26335;SDS011;14047;50.936;4.654;2023-07-22T09:55:17;7.80;;;2.45;;
26335;SDS011;14047;50.936;4.654;2023-07-22T09:58:01;7.50;;;2.00;;
26335;SDS011;14047;50.936;4.654;2023-07-22T10:00:29;5.55;;;1.88;;
26335;SDS011;14047;50.936;4.654;2023-07-22T10:03:00;4.05;;;1.58;;
26335;SDS011;14047;50.936;4.654;2023-07-22T10:05:30;4.97;;;1.70;;
26335;SDS011;14047;50.936;4.654;2023-07-22T10:07:59;5.15;;;1.40;;
26335;SDS011;14047;50.936;4.654;2023-07-22T10:10:35;5.00;;;1.80;;
26335;SDS011;14047;50.936;4.654;2023-07-22T10:13:24;4.60;;;1.90;;
26335;SDS011;14047;50.936;4.654;2023-07-22T10:15:50;5.60;;;1.60;;
26335;SDS011;14047;50.936;4.654;2023-07-22T10:18:16;1.77;;;1.20;;
26335;SDS011;14047;50.936;4.654;2023-07-22T10:20:43;4.32;;;1.58;;
26335;SDS011;14047;50.936;4.654;2023-07-22T10:23:09;6.03;;;1.75;;
26335;SDS011;14047;50.936;4.654;2023-07-22T10:25:39;3.78;;;1.67;;
26335;SDS011;14047;50.936;4.654;2023-07-22T10:28:06;2.85;;;1.65;;
26335;SDS011;14047;50.936;4.654;2023-07-22T10:30:32;3.75;;;1.65;;
26335;SDS011;14047;50.936;4.654;2023-07-22T10:32:59;5.78;;;1.63;;
26335;SDS011;14047;50.936;4.654;2023-07-22T10:38:10;6.15;;;2.00;;
26335;SDS011;14047;50.936;4.654;2023-07-22T10:40:45;9.10;;;1.90;;
26335;SDS011;14047;50.936;4.654;2023-07-22T10:43:15;4.05;;;2.00;;
26335;SDS011;14047;50.936;4.654;2023-07-22T10:45:52;5.75;;;1.75;;
26335;SDS011;14047;50.936;4.654;2023-07-22T10:48:19;2.67;;;1.65;;
26335;SDS011;14047;50.936;4.654;2023-07-22T11:01:23;4.82;;;1.38;;
26335;SDS011;14047;50.936;4.654;2023-07-22T11:04:06;2.83;;;1.52;;
26335;SDS011;14047;50.936;4.654;2023-07-22T11:06:34;5.63;;;1.83;;
26335;SDS011;14047;50.936;4.654;2023-07-22T11:09:00;4.82;;;1.50;;
26335;SDS011;14047;50.936;4.654;2023-07-22T11:11:36;2.75;;;1.20;;
26335;SDS011;14047;50.936;4.654;2023-07-22T11:14:17;4.13;;;1.38;;
26335;SDS011;14047;50.936;4.654;2023-07-22T11:16:46;2.47;;;1.23;;
26335;SDS011;14047;50.936;4.654;2023-07-22T11:19:13;6.68;;;1.05;;
26335;SDS011;14047;50.936;4.654;2023-07-22T11:21:41;3.20;;;1.40;;
26335;SDS011;14047;50.936;4.654;2023-07-22T11:24:07;7.75;;;1.20;;
26335;SDS011;14047;50.936;4.654;2023-07-22T11:26:34;4.88;;;1.50;;
26335;SDS011;14047;50.936;4.654;2023-07-22T11:29:01;2.35;;;1.40;;
26335;SDS011;14047;50.936;4.654;2023-07-22T11:31:38;2.22;;;1.48;;
26335;SDS011;14047;50.936;4.654;2023-07-22T11:34:12;2.00;;;1.35;;
26335;SDS011;14047;50.936;4.654;2023-07-22T11:36:39;4.78;;;1.20;;
26335;SDS011;14047;50.936;4.654;2023-07-22T11:39:06;3.28;;;1.50;;
26335;SDS011;14047;50.936;4.654;2023-07-22T11:41:33;6.38;;;1.65;;
26335;SDS011;14047;50.936;4.654;2023-07-22T11:44:00;5.90;;;1.80;;
26335;SDS011;14047;50.936;4.654;2023-07-22T11:46:28;6.18;;;1.55;;
26335;SDS011;14047;50.936;4.654;2023-07-22T11:48:55;3.17;;;1.60;;
26335;SDS011;14047;50.936;4.654;2023-07-22T11:51:21;4.57;;;1.65;;
26335;SDS011;14047;50.936;4.654;2023-07-22T11:53:50;3.92;;;1.70;;
26335;SDS011;14047;50.936;4.654;2023-07-22T11:56:20;6.15;;;1.42;;
26335;SDS011;14047;50.936;4.654;2023-07-22T11:58:56;4.85;;;1.90;;
26335;SDS011;14047;50.936;4.654;2023-07-22T12:01:22;5.72;;;2.33;;
26335;SDS011;14047;50.936;4.654;2023-07-22T12:03:49;3.70;;;1.50;;
26335;SDS011;14047;50.936;4.654;2023-07-22T12:06:20;4.78;;;1.65;;
26335;SDS011;14047;50.936;4.654;2023-07-22T12:08:51;2.10;;;1.40;;
26335;SDS011;14047;50.936;4.654;2023-07-22T12:11:21;7.10;;;2.00;;
26335;SDS011;14047;50.936;4.654;2023-07-22T12:14:08;3.90;;;1.70;;
26335;SDS011;14047;50.936;4.654;2023-07-22T12:16:36;4.72;;;2.28;;
26335;SDS011;14047;50.936;4.654;2023-07-22T12:19:03;3.40;;;1.88;;
26335;SDS011;14047;50.936;4.654;2023-07-22T12:21:30;4.32;;;1.73;;
26335;SDS011;14047;50.936;4.654;2023-07-22T12:23:56;3.00;;;2.10;;
26335;SDS011;14047;50.936;4.654;2023-07-22T12:26:22;3.67;;;1.75;;
26335;SDS011;14047;50.936;4.654;2023-07-22T12:28:48;7.32;;;1.45;;
26335;SDS011;14047;50.936;4.654;2023-07-22T12:31:15;3.90;;;1.60;;
26335;SDS011;14047;50.936;4.654;2023-07-22T12:33:41;4.18;;;1.77;;
26335;SDS011;14047;50.936;4.654;2023-07-22T12:36:08;2.38;;;1.63;;
26335;SDS011;14047;50.936;4.654;2023-07-22T12:38:34;4.07;;;2.00;;
26335;SDS011;14047;50.936;4.654;2023-07-22T12:41:00;5.28;;;1.80;;
26335;SDS011;14047;50.936;4.654;2023-07-22T12:43:26;3.85;;;1.70;;
26335;SDS011;14047;50.936;4.654;2023-07-22T12:45:53;2.95;;;1.20;;
26335;SDS011;14047;50.936;4.654;2023-07-22T12:48:19;4.20;;;1.50;;
26335;SDS011;14047;50.936;4.654;2023-07-22T12:50:45;2.13;;;1.30;;
26335;SDS011;14047;50.936;4.654;2023-07-22T12:53:13;4.70;;;1.73;;
26335;SDS011;14047;50.936;4.654;2023-07-22T12:55:39;3.88;;;1.55;;
26335;SDS011;14047;50.936;4.654;2023-07-22T12:58:05;3.15;;;1.60;;
26335;SDS011;14047;50.936;4.654;2023-07-22T13:00:31;4.80;;;1.30;;
26335;SDS011;14047;50.936;4.654;2023-07-22T13:02:57;2.78;;;1.45;;
26335;SDS011;14047;50.936;4.654;2023-07-22T13:05:23;2.45;;;1.30;;
26335;SDS011;14047;50.936;4.654;2023-07-22T13:07:49;5.13;;;1.98;;
26335;SDS011;14047;50.936;4.654;2023-07-22T13:10:16;3.20;;;1.63;;
26335;SDS011;14047;50.936;4.654;2023-07-22T13:12:44;4.25;;;1.40;;
26335;SDS011;14047;50.936;4.654;2023-07-22T13:15:10;5.03;;;1.35;;
26335;SDS011;14047;50.936;4.654;2023-07-22T13:17:36;6.22;;;1.50;;
26335;SDS011;14047;50.936;4.654;2023-07-22T13:20:02;5.55;;;1.27;;
26335;SDS011;14047;50.936;4.654;2023-07-22T13:22:37;4.35;;;1.60;;
26335;SDS011;14047;50.936;4.654;2023-07-22T13:25:04;3.67;;;1.65;;
26335;SDS011;14047;50.936;4.654;2023-07-22T13:27:30;1.98;;;1.20;;
26335;SDS011;14047;50.936;4.654;2023-07-22T13:29:56;5.18;;;1.40;;
26335;SDS011;14047;50.936;4.654;2023-07-22T13:32:22;5.45;;;1.85;;
26335;SDS011;14047;50.936;4.654;2023-07-22T13:34:49;3.60;;;1.48;;
26335;SDS011;14047;50.936;4.654;2023-07-22T13:37:15;6.68;;;1.27;;
26335;SDS011;14047;50.936;4.654;2023-07-22T13:39:41;2.47;;;1.48;;
26335;SDS011;14047;50.936;4.654;2023-07-22T13:42:07;5.22;;;1.30;;
26335;SDS011;14047;50.936;4.654;2023-07-22T13:44:34;3.35;;;1.30;;
26335;SDS011;14047;50.936;4.654;2023-07-22T13:47:00;6.10;;;1.40;;
26335;SDS011;14047;50.936;4.654;2023-07-22T13:49:26;2.75;;;1.27;;
26335;SDS011;14047;50.936;4.654;2023-07-22T13:51:52;5.45;;;1.45;;
26335;SDS011;14047;50.936;4.654;2023-07-22T13:54:18;3.10;;;1.20;;
26335;SDS011;14047;50.936;4.654;2023-07-22T13:56:45;3.30;;;1.23;;
26335;SDS011;14047;50.936;4.654;2023-07-22T13:59:13;3.15;;;1.23;;
26335;SDS011;14047;50.936;4.654;2023-07-22T14:01:39;9.73;;;2.00;;
26335;SDS011;14047;50.936;4.654;2023-07-22T14:04:05;2.28;;;1.20;;
26335;SDS011;14047;50.936;4.654;2023-07-22T14:06:31;3.38;;;1.45;;
26335;SDS011;14047;50.936;4.654;2023-07-22T14:08:57;3.75;;;1.27;;
26335;SDS011;14047;50.936;4.654;2023-07-22T14:11:26;5.65;;;1.75;;
26335;SDS011;14047;50.936;4.654;2023-07-22T14:13:52;6.57;;;1.35;;
26335;SDS011;14047;50.936;4.654;2023-07-22T14:16:18;4.32;;;1.35;;
26335;SDS011;14047;50.936;4.654;2023-07-22T14:18:44;5.05;;;1.60;;
26335;SDS011;14047;50.936;4.654;2023-07-22T14:21:10;3.97;;;1.75;;
26335;SDS011;14047;50.936;4.654;2023-07-22T14:23:36;5.60;;;1.63;;
26335;SDS011;14047;50.936;4.654;2023-07-22T14:26:03;3.67;;;1.50;;
26335;SDS011;14047;50.936;4.654;2023-07-22T14:28:29;5.30;;;1.52;;
26335;SDS011;14047;50.936;4.654;2023-07-22T14:30:54;5.55;;;2.05;;
26335;SDS011;14047;50.936;4.654;2023-07-22T14:33:20;3.72;;;1.60;;
26335;SDS011;14047;50.936;4.654;2023-07-22T14:35:46;7.65;;;1.70;;
26335;SDS011;14047;50.936;4.654;2023-07-22T14:38:12;5.00;;;1.83;;
26335;SDS011;14047;50.936;4.654;2023-07-22T14:40:38;2.55;;;1.60;;
26335;SDS011;14047;50.936;4.654;2023-07-22T14:43:04;3.45;;;1.40;;
26335;SDS011;14047;50.936;4.654;2023-07-22T14:45:30;3.28;;;1.55;;
26335;SDS011;14047;50.936;4.654;2023-07-22T14:47:56;5.22;;;1.83;;
26335;SDS011;14047;50.936;4.654;2023-07-22T14:50:22;4.72;;;1.95;;
26335;SDS011;14047;50.936;4.654;2023-07-22T14:52:48;3.15;;;1.63;;
26335;SDS011;14047;50.936;4.654;2023-07-22T14:55:14;5.78;;;1.85;;
26335;SDS011;14047;50.936;4.654;2023-07-22T14:57:40;6.47;;;1.60;;